createdAt,value
2023-03-31T00:02:14.868Z,101108.13
2023-03-31T00:04:53.941Z,101114.88
2023-03-31T00:07:23.892Z,101113.16
2023-03-31T00:10:06.907Z,101117.72
2023-03-31T00:12:46.123Z,101108.09
2023-03-31T00:15:16.356Z,101110.53
2023-03-31T00:17:46.199Z,101099.53
2023-03-31T00:20:16.399Z,101109.84
2023-03-31T00:22:49.334Z,101107.94
2023-03-31T00:25:19.378Z,101109.94
2023-03-31T00:27:51.963Z,101108.31
2023-03-31T00:30:22.133Z,101108.03
2023-03-31T00:32:51.740Z,101112.84
2023-03-31T00:35:21.328Z,101114.69
2023-03-31T00:37:50.901Z,101114.56
2023-03-31T00:40:20.663Z,101110.69
2023-03-31T00:42:50.311Z,101113.75
2023-03-31T00:45:24.695Z,101102.09
2023-03-31T00:48:06.821Z,101105.31
2023-03-31T00:50:42.854Z,101100.47
2023-03-31T00:53:18.161Z,101104.75
2023-03-31T00:55:53.161Z,101103.94
2023-03-31T00:58:29.859Z,101101.38
2023-03-31T01:01:03.696Z,101097.19
2023-03-31T01:03:35.916Z,101100.50
2023-03-31T01:06:11.885Z,101100.50
2023-03-31T01:08:43.613Z,101098.47
2023-03-31T01:11:17.881Z,101099.75
2023-03-31T01:13:51.679Z,101099.28
2023-03-31T01:16:21.318Z,101092.84
2023-03-31T01:18:52.182Z,101097.78
2023-03-31T01:21:33.805Z,101088.72
2023-03-31T01:25:10.393Z,101096.00
2023-03-31T01:28:07.513Z,101086.03
2023-03-31T01:31:10.476Z,101090.81
2023-03-31T01:34:07.197Z,101083.59
2023-03-31T01:37:11.490Z,101084.38
2023-03-31T01:40:02.059Z,101083.63
2023-03-31T01:42:40.523Z,101079.22
2023-03-31T01:45:42.707Z,101075.72
2023-03-31T01:48:19.905Z,101067.09
2023-03-31T01:51:19.585Z,101052.94
2023-03-31T01:54:13.340Z,101063.44
2023-03-31T01:56:54.844Z,101071.78
2023-03-31T01:59:34.488Z,101068.38
2023-03-31T02:02:20.130Z,101055.97
2023-03-31T02:05:08.681Z,101055.16
2023-03-31T02:07:56.249Z,101072.28
2023-03-31T02:10:27.571Z,101066.94
2023-03-31T02:12:59.230Z,101058.06
2023-03-31T02:15:38.089Z,101055.00
2023-03-31T02:18:12.788Z,101050.41
2023-03-31T02:20:44.425Z,101051.22
2023-03-31T02:23:16.280Z,101048.78
2023-03-31T02:25:55.731Z,101036.81
2023-03-31T02:28:28.527Z,101019.16
2023-03-31T02:31:12.928Z,101039.63
2023-03-31T02:33:42.639Z,101036.19
2023-03-31T02:36:12.908Z,101026.00
2023-03-31T02:38:49.361Z,101026.31
2023-03-31T02:41:19.009Z,101028.47
2023-03-31T02:43:48.699Z,101017.13
2023-03-31T02:46:18.332Z,101023.19
2023-03-31T02:49:01.232Z,101008.16
2023-03-31T02:52:04.578Z,101006.44
2023-03-31T02:54:51.836Z,101004.72
2023-03-31T02:57:59.503Z,100990.63
2023-03-31T03:00:32.338Z,100990.06
2023-03-31T03:03:47.642Z,100979.91
2023-03-31T03:06:39.098Z,100981.19
2023-03-31T03:09:15.486Z,100977.25
2023-03-31T03:12:12.638Z,100967.44
2023-03-31T03:15:03.625Z,100963.91
2023-03-31T03:17:39.552Z,100964.59
2023-03-31T03:20:11.034Z,100961.19
2023-03-31T03:22:42.282Z,100944.38
2023-03-31T03:25:18.588Z,100954.25
2023-03-31T03:27:48.658Z,100948.13
2023-03-31T03:30:18.432Z,100944.19
2023-03-31T03:32:48.164Z,100940.31
2023-03-31T03:35:17.962Z,100940.34
2023-03-31T03:37:47.622Z,100939.41
2023-03-31T03:40:17.348Z,100925.28
2023-03-31T03:42:46.906Z,100925.78
2023-03-31T03:45:16.578Z,100918.59
2023-03-31T03:47:46.350Z,100924.19
2023-03-31T03:50:16.550Z,100913.97
2023-03-31T03:52:46.682Z,100919.06
2023-03-31T03:55:16.386Z,100907.63
2023-03-31T03:57:46.048Z,100908.03
2023-03-31T04:00:27.527Z,100895.59
2023-03-31T04:03:07.139Z,100898.84
2023-03-31T04:05:42.008Z,100885.09
2023-03-31T04:08:16.825Z,100889.88
2023-03-31T04:10:55.786Z,100886.94
2023-03-31T04:13:28.394Z,100875.50
2023-03-31T04:15:59.484Z,100867.94
2023-03-31T04:18:32.400Z,100864.88
2023-03-31T04:21:09.960Z,100869.50
2023-03-31T04:23:48.025Z,100859.19
2023-03-31T04:26:31.709Z,100848.75
2023-03-31T04:29:01.796Z,100841.16
2023-03-31T04:31:34.104Z,100838.81
2023-03-31T04:34:14.742Z,100823.75
2023-03-31T04:36:52.382Z,100834.75
2023-03-31T04:39:32.154Z,100826.47
2023-03-31T04:42:04.530Z,100817.16
2023-03-31T04:44:41.698Z,100824.34
2023-03-31T04:47:14.420Z,100818.34
2023-03-31T04:49:48.704Z,100812.28
2023-03-31T04:52:21.108Z,100823.25
2023-03-31T04:54:52.383Z,100806.50
2023-03-31T04:57:24.732Z,100806.59
2023-03-31T04:59:56.985Z,100804.06
2023-03-31T05:02:34.223Z,100803.00
2023-03-31T05:05:08.094Z,100797.06
2023-03-31T05:07:40.649Z,100788.31
2023-03-31T05:10:16.785Z,100785.28
2023-03-31T05:12:50.784Z,100776.91
2023-03-31T05:15:27.330Z,100773.84
2023-03-31T05:18:04.101Z,100768.75
2023-03-31T05:20:39.497Z,100758.44
2023-03-31T05:23:10.613Z,100766.25
2023-03-31T05:25:43.906Z,100759.41
2023-03-31T05:28:16.496Z,100750.97
2023-03-31T05:30:54.489Z,100747.63
2023-03-31T05:33:26.958Z,100747.69
2023-03-31T05:36:01.734Z,100737.47
2023-03-31T05:38:39.372Z,100733.94
2023-03-31T05:41:10.849Z,100733.78
2023-03-31T05:43:42.211Z,100741.78
2023-03-31T05:46:17.153Z,100733.88
2023-03-31T05:48:49.631Z,100732.34
2023-03-31T05:51:19.933Z,100729.41
2023-03-31T05:53:52.689Z,100720.69
2023-03-31T05:56:23.648Z,100718.31
2023-03-31T05:58:55.100Z,100717.59
2023-03-31T06:01:27.422Z,100713.53
2023-03-31T06:04:02.715Z,100710.28
2023-03-31T06:06:37.740Z,100698.03
2023-03-31T06:09:17.265Z,100696.31
2023-03-31T06:11:51.805Z,100698.56
2023-03-31T06:14:28.498Z,100695.94
2023-03-31T06:17:03.019Z,100688.00
2023-03-31T06:19:36.155Z,100692.97
2023-03-31T06:22:09.472Z,100692.84
2023-03-31T06:24:44.278Z,100693.38
2023-03-31T06:27:16.121Z,100685.56
2023-03-31T06:29:51.043Z,100685.75
2023-03-31T06:32:23.207Z,100679.19
2023-03-31T06:34:56.267Z,100677.56
2023-03-31T06:37:27.928Z,100682.22
2023-03-31T06:40:01.004Z,100683.94
2023-03-31T06:42:34.990Z,100665.16
2023-03-31T06:45:08.709Z,100672.75
2023-03-31T06:47:46.563Z,100663.53
2023-03-31T06:50:21.449Z,100675.59
2023-03-31T06:52:55.190Z,100669.88
2023-03-31T06:55:26.392Z,100661.75
2023-03-31T06:58:01.971Z,100658.56
2023-03-31T07:00:34.538Z,100649.09
2023-03-31T07:03:06.634Z,100642.34
2023-03-31T07:05:40.844Z,100640.44
2023-03-31T07:08:13.011Z,100640.44
2023-03-31T07:10:43.459Z,100642.84
2023-03-31T07:13:21.559Z,100651.44
2023-03-31T07:15:54.118Z,100649.47
2023-03-31T07:18:31.168Z,100647.72
2023-03-31T07:21:08.997Z,100647.72
2023-03-31T07:23:43.800Z,100644.81
2023-03-31T07:26:14.797Z,100643.28
2023-03-31T07:28:49.654Z,100635.25
2023-03-31T07:31:20.472Z,100639.47
2023-03-31T07:33:50.900Z,100637.53
2023-03-31T07:36:23.540Z,100639.81
2023-03-31T07:38:55.969Z,100635.91
2023-03-31T07:41:29.524Z,100638.69
2023-03-31T07:44:01.289Z,100639.94
2023-03-31T07:46:33.635Z,100643.69
2023-03-31T07:49:04.911Z,100631.34
2023-03-31T07:51:37.862Z,100638.91
2023-03-31T07:54:08.229Z,100635.50
2023-03-31T07:56:39.498Z,100628.84
2023-03-31T07:59:10.926Z,100636.66
2023-03-31T08:01:43.053Z,100640.63
2023-03-31T08:04:15.045Z,100634.00
2023-03-31T08:06:46.476Z,100632.13
2023-03-31T08:09:17.926Z,100630.53
2023-03-31T08:11:50.105Z,100631.22
2023-03-31T08:14:39.969Z,100630.06
2023-03-31T08:17:14.063Z,100628.47
2023-03-31T08:19:44.310Z,100619.84
2023-03-31T08:22:14.145Z,100627.53
2023-03-31T08:24:45.795Z,100635.66
2023-03-31T08:27:18.569Z,100628.47
2023-03-31T08:29:49.828Z,100631.03
2023-03-31T08:32:20.477Z,100629.88
2023-03-31T08:34:50.488Z,100625.44
2023-03-31T08:37:20.108Z,100634.53
2023-03-31T08:39:50.000Z,100637.09
2023-03-31T08:42:43.996Z,100645.19
2023-03-31T08:45:22.169Z,100633.22
2023-03-31T08:48:01.342Z,100644.03
2023-03-31T08:50:36.522Z,100641.72
2023-03-31T08:53:18.272Z,100649.34
2023-03-31T08:55:57.586Z,100641.53
2023-03-31T08:58:44.594Z,100648.03
2023-03-31T09:01:28.435Z,100651.88
2023-03-31T09:04:13.847Z,100657.19
2023-03-31T09:06:53.394Z,100651.84
2023-03-31T09:09:36.971Z,100659.69
2023-03-31T09:12:18.178Z,100649.09
2023-03-31T09:15:02.745Z,100660.22
2023-03-31T09:17:43.063Z,100671.28
2023-03-31T09:20:32.206Z,100675.50
2023-03-31T09:23:27.494Z,100680.41
2023-03-31T09:25:59.784Z,100686.09
2023-03-31T09:28:42.459Z,100684.34
2023-03-31T09:31:23.457Z,100685.38
2023-03-31T09:33:58.634Z,100689.50
2023-03-31T09:36:28.412Z,100687.81
2023-03-31T09:38:58.316Z,100691.56
2023-03-31T09:41:28.649Z,100693.38
2023-03-31T09:43:58.232Z,100687.28
2023-03-31T09:46:27.810Z,100695.06
2023-03-31T09:49:14.487Z,100690.53
2023-03-31T09:51:49.116Z,100690.38
2023-03-31T09:54:35.505Z,100689.06
2023-03-31T09:57:05.964Z,100699.25
2023-03-31T09:59:38.632Z,100693.72
2023-03-31T10:02:26.465Z,100692.44
2023-03-31T10:04:56.671Z,100696.72
2023-03-31T10:07:28.175Z,100698.50
2023-03-31T10:09:58.945Z,100704.22
2023-03-31T10:12:32.025Z,100701.66
2023-03-31T10:15:21.950Z,100707.38
2023-03-31T10:17:55.247Z,100708.53
2023-03-31T10:20:41.542Z,100709.19
2023-03-31T10:23:30.607Z,100701.88
2023-03-31T10:26:01.516Z,100696.78
2023-03-31T10:28:35.980Z,100713.78
2023-03-31T10:31:06.809Z,100708.53
2023-03-31T10:33:46.507Z,100714.69
2023-03-31T10:36:27.831Z,100715.09
2023-03-31T10:38:58.927Z,100724.63
2023-03-31T10:41:32.886Z,100732.78
2023-03-31T10:44:05.350Z,100737.50
2023-03-31T10:46:55.110Z,100725.25
2023-03-31T10:49:24.652Z,100735.88
2023-03-31T10:51:59.152Z,100735.53
2023-03-31T10:54:28.927Z,100731.72
2023-03-31T10:57:03.156Z,100734.00
2023-03-31T11:00:20.774Z,100737.22
2023-03-31T11:03:27.032Z,100741.41
2023-03-31T11:06:36.679Z,100741.19
2023-03-31T11:09:38.301Z,100755.69
2023-03-31T11:12:43.120Z,100753.09
2023-03-31T11:15:29.531Z,100764.94
2023-03-31T11:18:08.303Z,100758.66
2023-03-31T11:21:21.966Z,100765.19
2023-03-31T11:23:57.857Z,100760.09
2023-03-31T11:26:40.459Z,100768.69
2023-03-31T11:29:34.365Z,100772.50
2023-03-31T11:32:39.071Z,100774.66
2023-03-31T11:35:17.596Z,100769.41
2023-03-31T11:38:05.929Z,100785.13
2023-03-31T11:40:47.232Z,100778.66
2023-03-31T11:43:23.320Z,100789.97
2023-03-31T11:46:04.612Z,100781.03
2023-03-31T11:49:01.647Z,100788.53
2023-03-31T11:51:42.342Z,100793.44
2023-03-31T11:54:22.574Z,100794.06
2023-03-31T11:56:53.383Z,100790.91
2023-03-31T11:59:25.414Z,100796.56
2023-03-31T12:02:33.143Z,100799.34
2023-03-31T12:05:05.720Z,100801.78
2023-03-31T12:07:38.937Z,100803.34
2023-03-31T12:10:32.267Z,100806.59
2023-03-31T12:13:13.620Z,100805.81
2023-03-31T12:15:48.219Z,100790.00
2023-03-31T12:18:28.029Z,100797.47
2023-03-31T12:21:01.313Z,100808.31
2023-03-31T12:23:36.338Z,100813.22
2023-03-31T12:26:40.157Z,100813.50
2023-03-31T12:29:30.244Z,100811.81
2023-03-31T12:32:03.765Z,100810.41
2023-03-31T12:34:35.226Z,100806.84
2023-03-31T12:37:29.326Z,100812.47
2023-03-31T12:40:20.266Z,100808.88
2023-03-31T12:43:02.101Z,100810.00
2023-03-31T12:45:38.581Z,100822.06
2023-03-31T12:48:23.034Z,100815.38
2023-03-31T12:51:18.600Z,100815.22
2023-03-31T12:54:02.699Z,100818.38
2023-03-31T12:57:04.451Z,100813.78
2023-03-31T12:59:37.036Z,100820.13
2023-03-31T13:02:12.728Z,100821.78
2023-03-31T13:04:43.051Z,100828.38
2023-03-31T13:07:29.042Z,100829.50
2023-03-31T13:10:20.358Z,100830.06
2023-03-31T13:13:08.847Z,100827.25
2023-03-31T13:15:38.504Z,100830.00
2023-03-31T13:18:20.627Z,100834.25
2023-03-31T13:23:39.280Z,100832.25
2023-03-31T13:26:29.024Z,100835.88
2023-03-31T13:29:22.069Z,100839.31
2023-03-31T13:32:03.962Z,100837.00
2023-03-31T13:34:49.855Z,100834.75
2023-03-31T13:37:34.614Z,100840.56
2023-03-31T13:40:32.006Z,100845.06
2023-03-31T13:43:19.892Z,100845.13
2023-03-31T13:46:01.907Z,100833.47
2023-03-31T13:48:43.792Z,100841.38
2023-03-31T13:51:22.760Z,100845.13
2023-03-31T13:54:09.663Z,100847.41
2023-03-31T13:57:00.602Z,100834.75
2023-03-31T14:00:02.550Z,100839.25
2023-03-31T14:02:53.332Z,100840.63
2023-03-31T14:05:51.319Z,100847.72
2023-03-31T14:08:57.873Z,100847.41
2023-03-31T14:11:36.714Z,100847.19
2023-03-31T14:14:21.951Z,100849.88
2023-03-31T14:17:14.690Z,100835.09
2023-03-31T14:19:49.560Z,100850.22
2023-03-31T14:22:48.008Z,100851.66
2023-03-31T14:25:41.864Z,100852.09
2023-03-31T14:28:26.371Z,100851.28
2023-03-31T14:31:28.564Z,100852.31
2023-03-31T14:34:21.006Z,100851.63
2023-03-31T14:37:09.925Z,100853.66
2023-03-31T14:39:48.686Z,100855.59
2023-03-31T14:42:21.055Z,100833.16
2023-03-31T14:44:51.197Z,100852.84
2023-03-31T14:47:33.679Z,100851.25
2023-03-31T14:50:21.545Z,100837.84
2023-03-31T14:53:00.509Z,100848.34
2023-03-31T14:55:54.329Z,100847.84
2023-03-31T14:58:35.882Z,100847.31
2023-03-31T15:01:13.295Z,100845.59
2023-03-31T15:03:47.381Z,100848.34
2023-03-31T15:06:18.753Z,100843.22
2023-03-31T15:08:54.376Z,100840.13
2023-03-31T15:11:27.977Z,100845.09
2023-03-31T15:14:05.177Z,100846.75
2023-03-31T15:16:51.877Z,100847.31
2023-03-31T15:19:33.972Z,100851.50
2023-03-31T15:22:24.093Z,100859.47
2023-03-31T15:24:55.870Z,100848.47
2023-03-31T15:27:36.960Z,100855.63
2023-03-31T15:30:16.983Z,100850.69
2023-03-31T15:32:49.247Z,100824.91
2023-03-31T15:35:39.627Z,100856.84
2023-03-31T15:38:13.844Z,100863.94
2023-03-31T15:40:49.786Z,100858.03
2023-03-31T15:43:33.301Z,100860.78
2023-03-31T15:46:06.229Z,100847.75
2023-03-31T15:48:53.971Z,100853.25
2023-03-31T15:51:45.024Z,100857.88
2023-03-31T15:54:46.499Z,100855.41
2023-03-31T15:57:23.913Z,100853.19
2023-03-31T15:59:59.229Z,100849.66
2023-03-31T16:02:45.603Z,100861.19
2023-03-31T16:05:43.764Z,100848.78
2023-03-31T16:08:44.990Z,100855.38
2023-03-31T16:11:33.276Z,100843.97
2023-03-31T16:14:12.800Z,100852.19
2023-03-31T16:16:51.466Z,100853.91
2023-03-31T16:19:26.560Z,100848.41
2023-03-31T16:22:02.380Z,100857.31
2023-03-31T16:24:36.845Z,100860.00
2023-03-31T16:27:10.798Z,100854.84
2023-03-31T16:29:41.503Z,100857.38
2023-03-31T16:32:22.958Z,100862.84
2023-03-31T16:35:04.710Z,100866.69
2023-03-31T16:37:36.270Z,100866.69
2023-03-31T16:40:07.269Z,100862.31
2023-03-31T16:42:37.780Z,100862.25
2023-03-31T16:45:14.679Z,100862.03
2023-03-31T16:47:46.008Z,100868.47
2023-03-31T16:50:17.157Z,100864.09
2023-03-31T16:52:48.731Z,100868.94
2023-03-31T16:55:18.416Z,100867.59
2023-03-31T16:57:48.658Z,100872.84
2023-03-31T17:00:20.046Z,100864.59
2023-03-31T17:02:50.073Z,100861.56
2023-03-31T17:05:23.389Z,100859.63
2023-03-31T17:07:53.866Z,100859.59
2023-03-31T17:10:24.444Z,100850.31
2023-03-31T17:12:54.171Z,100852.47
2023-03-31T17:15:24.997Z,100853.88
2023-03-31T17:17:54.809Z,100856.34
2023-03-31T17:20:26.030Z,100847.91
2023-03-31T17:22:57.024Z,100848.13
2023-03-31T17:25:26.884Z,100855.84
2023-03-31T17:28:02.185Z,100856.13
2023-03-31T17:30:35.750Z,100846.25
2023-03-31T17:33:05.681Z,100855.84
2023-03-31T17:35:35.398Z,100852.59
2023-03-31T17:38:05.778Z,100845.69
2023-03-31T17:40:36.696Z,100853.13
2023-03-31T17:43:06.736Z,100853.13
2023-03-31T17:45:36.650Z,100855.84
2023-03-31T17:48:08.170Z,100860.28
2023-03-31T17:50:39.531Z,100849.28
2023-03-31T17:53:10.554Z,100842.69
2023-03-31T17:55:40.364Z,100836.34
2023-03-31T17:58:11.020Z,100830.59
2023-03-31T18:00:40.692Z,100828.94
2023-03-31T18:03:10.804Z,100833.63
2023-03-31T18:05:42.585Z,100836.38
2023-03-31T18:08:12.587Z,100825.34
2023-03-31T18:10:44.399Z,100832.22
2023-03-31T18:13:14.564Z,100830.03
2023-03-31T18:15:49.873Z,100826.47
2023-03-31T18:18:20.190Z,100833.88
2023-03-31T18:20:49.772Z,100832.22
2023-03-31T18:23:19.405Z,100821.53
2023-03-31T18:25:49.481Z,100820.13
2023-03-31T18:28:20.053Z,100814.94
2023-03-31T18:30:49.630Z,100812.47
2023-03-31T18:33:19.392Z,100815.22
2023-03-31T18:35:49.882Z,100817.69
2023-03-31T18:38:20.000Z,100808.41
2023-03-31T18:40:54.408Z,100810.03
2023-03-31T18:43:26.157Z,100802.34
2023-03-31T18:45:57.919Z,100794.38
2023-03-31T18:48:27.528Z,100789.97
2023-03-31T18:50:57.175Z,100790.53
2023-03-31T18:53:27.431Z,100790.56
2023-03-31T18:55:59.604Z,100786.16
2023-03-31T18:58:31.620Z,100783.38
2023-03-31T19:01:02.762Z,100790.53
2023-03-31T19:03:32.519Z,100785.34
2023-03-31T19:06:13.482Z,100787.25
2023-03-31T19:08:43.083Z,100786.69
2023-03-31T19:11:17.820Z,100787.25
2023-03-31T19:13:47.582Z,100771.59
2023-03-31T19:16:17.445Z,100790.84
2023-03-31T19:18:47.130Z,100785.63
2023-03-31T19:21:16.750Z,100791.69
2023-03-31T19:23:46.405Z,100796.59
2023-03-31T19:26:21.297Z,100795.50
2023-03-31T19:28:50.938Z,100801.81
2023-03-31T19:31:21.450Z,100798.78
2023-03-31T19:33:51.070Z,100796.56
2023-03-31T19:36:20.785Z,100787.25
2023-03-31T19:38:50.404Z,100797.97
2023-03-31T19:41:20.116Z,100794.94
2023-03-31T19:43:50.485Z,100781.75
2023-03-31T19:46:20.076Z,100799.34
2023-03-31T19:48:49.660Z,100792.75
2023-03-31T19:51:20.461Z,100787.56
2023-03-31T19:53:50.143Z,100790.84
2023-03-31T19:56:20.592Z,100789.19
2023-03-31T19:58:51.688Z,100794.94
2023-03-31T20:01:27.778Z,100794.97
2023-03-31T20:03:57.709Z,100792.72
2023-03-31T20:06:33.357Z,100790.56
2023-03-31T20:09:05.226Z,100788.38
2023-03-31T20:11:34.931Z,100793.06
2023-03-31T20:14:05.923Z,100792.22
2023-03-31T20:16:36.366Z,100785.34
2023-03-31T20:19:07.714Z,100791.94
2023-03-31T20:21:40.428Z,100779.56
2023-03-31T20:24:13.162Z,100802.84
2023-03-31T20:26:42.900Z,100799.56
2023-03-31T20:29:13.246Z,100793.84
2023-03-31T20:31:43.574Z,100796.88
2023-03-31T20:34:18.111Z,100780.41
2023-03-31T20:36:50.785Z,100807.50
2023-03-31T20:39:21.438Z,100801.41
2023-03-31T20:41:51.899Z,100804.78
2023-03-31T20:44:21.540Z,100805.34
2023-03-31T20:46:51.279Z,100810.31
2023-03-31T20:49:20.950Z,100803.97
2023-03-31T20:51:51.152Z,100808.63
2023-03-31T20:54:20.861Z,100812.72
2023-03-31T20:56:52.512Z,100814.03
2023-03-31T20:59:23.139Z,100758.91
2023-03-31T21:01:53.156Z,100804.22
2023-03-31T21:04:23.386Z,100807.53
2023-03-31T21:06:53.427Z,100803.16
2023-03-31T21:09:23.338Z,100800.72
2023-03-31T21:11:53.425Z,100799.84
2023-03-31T21:14:23.314Z,100805.34
2023-03-31T21:16:52.958Z,100803.13
2023-03-31T21:19:22.682Z,100799.84
2023-03-31T21:21:52.245Z,100794.91
2023-03-31T21:24:21.915Z,100795.19
2023-03-31T21:26:51.522Z,100812.50
2023-03-31T21:29:21.151Z,100792.72
2023-03-31T21:31:50.778Z,100796.28
2023-03-31T21:34:20.351Z,100799.59
2023-03-31T21:36:51.699Z,100799.06
2023-03-31T21:39:24.270Z,100805.94
2023-03-31T21:41:53.892Z,100808.13
2023-03-31T21:44:23.538Z,100806.47
2023-03-31T21:46:53.530Z,100807.03
2023-03-31T21:49:23.458Z,100812.19
2023-03-31T21:51:53.072Z,100811.91
2023-03-31T21:54:22.616Z,100820.97
2023-03-31T21:56:52.574Z,100817.28
2023-03-31T21:59:22.293Z,100823.19
2023-03-31T22:01:51.915Z,100823.63
2023-03-31T22:04:22.093Z,100824.91
2023-03-31T22:06:51.684Z,100816.91
2023-03-31T22:09:21.276Z,100822.47
2023-03-31T22:11:50.928Z,100821.19
2023-03-31T22:14:20.532Z,100832.91
2023-03-31T22:16:50.890Z,100830.47
2023-03-31T22:19:20.506Z,100821.81
2023-03-31T22:21:51.500Z,100815.59
2023-03-31T22:24:21.172Z,100822.16
2023-03-31T22:26:50.744Z,100825.16
2023-03-31T22:29:20.334Z,100828.19
2023-03-31T22:31:49.959Z,100825.75
2023-03-31T22:34:23.156Z,100826.28
2023-03-31T22:36:53.349Z,100832.50
2023-03-31T22:39:23.116Z,100831.50
2023-03-31T22:41:53.085Z,100829.88
2023-03-31T22:44:23.232Z,100832.22
2023-03-31T22:46:53.108Z,100836.66
2023-03-31T22:49:23.195Z,100839.56
2023-03-31T22:51:56.216Z,100840.00
2023-03-31T22:54:25.814Z,100836.69
2023-03-31T22:56:55.936Z,100837.31
2023-03-31T22:59:25.655Z,100840.88
2023-03-31T23:01:55.317Z,100842.84
2023-03-31T23:04:25.173Z,100845.59
2023-03-31T23:06:54.826Z,100849.84
2023-03-31T23:09:26.010Z,100856.97
2023-03-31T23:11:55.744Z,100853.13
2023-03-31T23:14:25.594Z,100853.56
2023-03-31T23:16:56.474Z,100859.16
2023-03-31T23:19:26.201Z,100857.56
2023-03-31T23:21:55.900Z,100855.94
2023-03-31T23:24:26.486Z,100861.13
2023-03-31T23:26:57.025Z,100859.50
2023-03-31T23:29:27.419Z,100859.66
2023-03-31T23:31:57.076Z,100859.38
2023-03-31T23:34:26.669Z,100863.50
2023-03-31T23:36:56.711Z,100872.50
2023-03-31T23:39:26.439Z,100862.56
2023-03-31T23:41:56.060Z,100863.00
2023-03-31T23:44:25.705Z,100859.19
2023-03-31T23:46:55.289Z,100863.38
2023-03-31T23:49:24.916Z,100860.72
2023-03-31T23:51:55.127Z,100858.47
2023-03-31T23:54:25.062Z,100861.38
2023-03-31T23:56:54.791Z,100856.44
2023-03-31T23:59:24.403Z,100853.19
